createdAt,value
2023-02-02T00:00:52.521Z,0
2023-02-02T00:01:52.693Z,0
2023-02-02T00:02:52.921Z,0
2023-02-02T00:03:53.304Z,0
2023-02-02T00:04:53.671Z,0
2023-02-02T00:05:53.833Z,0
2023-02-02T00:06:54.002Z,0
2023-02-02T00:07:54.180Z,0
2023-02-02T00:08:54.352Z,0
2023-02-02T00:09:54.518Z,0
2023-02-02T00:10:54.692Z,0
2023-02-02T00:11:54.857Z,0
2023-02-02T00:12:55.017Z,0
2023-02-02T00:13:55.195Z,0
2023-02-02T00:14:55.363Z,0
2023-02-02T00:15:55.535Z,0
2023-02-02T00:16:55.796Z,0
2023-02-02T00:17:55.969Z,0
2023-02-02T00:18:56.146Z,0
2023-02-02T00:19:56.321Z,0
2023-02-02T00:20:56.493Z,0
2023-02-02T00:21:56.671Z,0
2023-02-02T00:22:56.847Z,0
2023-02-02T00:23:57.010Z,0
2023-02-02T00:24:57.184Z,0
2023-02-02T00:25:57.356Z,0
2023-02-02T00:26:57.520Z,0
2023-02-02T00:27:57.706Z,0
2023-02-02T00:28:57.894Z,0
2023-02-02T00:29:58.063Z,0
2023-02-02T00:30:58.296Z,0
2023-02-02T00:31:58.551Z,0
2023-02-02T00:32:58.729Z,0
2023-02-02T00:33:58.906Z,0
2023-02-02T00:34:59.083Z,0
2023-02-02T00:35:59.257Z,0
2023-02-02T00:36:59.441Z,0
2023-02-02T00:37:59.643Z,0
2023-02-02T00:38:59.810Z,0
2023-02-02T00:39:59.987Z,0
2023-02-02T00:41:00.188Z,0
2023-02-02T00:42:00.355Z,0
2023-02-02T00:43:00.539Z,0
2023-02-02T00:44:00.699Z,0
2023-02-02T00:45:00.871Z,0
2023-02-02T00:46:01.047Z,0
2023-02-02T00:47:01.377Z,0
2023-02-02T00:48:01.612Z,0
2023-02-02T00:49:01.781Z,0
2023-02-02T00:50:01.965Z,0
2023-02-02T00:51:02.139Z,0
2023-02-02T00:52:02.369Z,0
2023-02-02T00:53:03.102Z,0
2023-02-02T00:54:03.265Z,0
2023-02-02T00:55:03.430Z,0
2023-02-02T00:56:03.609Z,0
2023-02-02T00:57:03.875Z,0
2023-02-02T00:58:04.083Z,0
2023-02-02T00:59:04.296Z,0
2023-02-02T01:00:04.474Z,0
2023-02-02T01:01:04.710Z,0
2023-02-02T01:02:05.081Z,0
2023-02-02T01:03:05.350Z,0
2023-02-02T01:04:05.518Z,0
2023-02-02T01:05:05.696Z,0
2023-02-02T01:06:05.852Z,0
2023-02-02T01:07:06.044Z,0
2023-02-02T01:08:06.229Z,0
2023-02-02T01:09:06.438Z,0
2023-02-02T01:10:06.620Z,0
2023-02-02T01:11:06.800Z,0
2023-02-02T01:12:06.978Z,0
2023-02-02T01:13:07.152Z,0
2023-02-02T01:14:07.327Z,0
2023-02-02T01:15:07.493Z,0
2023-02-02T01:16:07.697Z,0
2023-02-02T01:17:07.963Z,0
2023-02-02T01:18:08.155Z,0
2023-02-02T01:19:08.342Z,0
2023-02-02T01:20:08.516Z,0
2023-02-02T01:21:08.694Z,0
2023-02-02T01:22:08.861Z,0
2023-02-02T01:23:09.025Z,0
2023-02-02T01:24:09.199Z,0
2023-02-02T01:25:09.386Z,0
2023-02-02T01:26:09.599Z,0
2023-02-02T01:27:09.781Z,0
2023-02-02T01:28:09.949Z,0
2023-02-02T01:29:10.121Z,0
2023-02-02T01:30:10.287Z,0
2023-02-02T01:31:10.491Z,0
2023-02-02T01:32:10.815Z,0
2023-02-02T01:33:10.986Z,0
2023-02-02T01:34:11.154Z,0
2023-02-02T01:35:11.342Z,0
2023-02-02T01:36:11.519Z,0
2023-02-02T01:37:11.719Z,0
2023-02-02T01:38:11.884Z,0
2023-02-02T01:39:12.053Z,0
2023-02-02T01:40:12.235Z,0
2023-02-02T01:41:12.411Z,0
2023-02-02T01:42:12.585Z,0
2023-02-02T01:43:12.745Z,0
2023-02-02T01:44:12.909Z,0
2023-02-02T01:45:13.079Z,0
2023-02-02T01:46:13.281Z,0
2023-02-02T01:47:13.645Z,0
2023-02-02T01:48:13.811Z,0
2023-02-02T01:49:14.015Z,0
2023-02-02T01:50:14.178Z,0
2023-02-02T01:51:14.346Z,0
2023-02-02T01:52:14.518Z,0
2023-02-02T01:53:14.684Z,0
2023-02-02T01:54:14.844Z,0
2023-02-02T01:55:15.014Z,0
2023-02-02T01:56:15.174Z,0
2023-02-02T01:57:15.342Z,0
2023-02-02T01:58:15.522Z,0
2023-02-02T01:59:15.691Z,0
2023-02-02T02:00:15.869Z,0
2023-02-02T02:01:16.177Z,0
2023-02-02T02:02:16.531Z,0
2023-02-02T02:03:16.802Z,0
2023-02-02T02:04:16.973Z,0
2023-02-02T02:05:17.156Z,0
2023-02-02T02:06:17.369Z,0
2023-02-02T02:07:17.699Z,0
2023-02-02T02:08:17.859Z,0
2023-02-02T02:09:18.073Z,0
2023-02-02T02:10:18.251Z,0
2023-02-02T02:11:18.412Z,0
2023-02-02T02:12:18.575Z,0
2023-02-02T02:13:18.741Z,0
2023-02-02T02:14:18.912Z,0
2023-02-02T02:15:19.081Z,0
2023-02-02T02:16:19.330Z,0
2023-02-02T02:17:19.791Z,0
2023-02-02T02:18:19.955Z,0
2023-02-02T02:19:20.137Z,0
2023-02-02T02:20:20.315Z,0
2023-02-02T02:21:20.486Z,0
2023-02-02T02:22:20.649Z,0
2023-02-02T02:23:20.821Z,0
2023-02-02T02:24:20.988Z,0
2023-02-02T02:25:21.147Z,0
2023-02-02T02:26:22.346Z,0
2023-02-02T02:27:22.598Z,0
2023-02-02T02:28:22.761Z,0
2023-02-02T02:29:22.937Z,0
2023-02-02T02:30:23.116Z,0
2023-02-02T02:31:23.485Z,0
2023-02-02T02:32:23.929Z,0
2023-02-02T02:33:24.096Z,0
2023-02-02T02:34:24.260Z,0
2023-02-02T02:35:24.731Z,0
2023-02-02T02:36:26.022Z,0
2023-02-02T02:37:26.193Z,0
2023-02-02T02:38:26.366Z,0
2023-02-02T02:39:26.526Z,0
2023-02-02T02:40:26.700Z,0
2023-02-02T02:41:26.889Z,0
2023-02-02T02:42:27.051Z,0
2023-02-02T02:43:27.213Z,0
2023-02-02T02:44:27.412Z,0
2023-02-02T02:45:27.592Z,0
2023-02-02T02:46:27.795Z,0
2023-02-02T02:47:28.100Z,0
2023-02-02T02:48:28.280Z,0
2023-02-02T02:49:28.453Z,0
2023-02-02T02:50:28.646Z,0
2023-02-02T02:51:28.825Z,0
2023-02-02T02:52:29.001Z,0
2023-02-02T02:53:29.171Z,0
2023-02-02T02:54:29.352Z,0
2023-02-02T02:55:29.539Z,0
2023-02-02T02:56:29.704Z,0
2023-02-02T02:57:29.867Z,0
2023-02-02T02:58:30.054Z,0
2023-02-02T02:59:30.222Z,0
2023-02-02T03:00:30.391Z,0
2023-02-02T03:01:30.708Z,0
2023-02-02T03:02:31.019Z,0
2023-02-02T03:03:31.295Z,0
2023-02-02T03:04:31.469Z,0
2023-02-02T03:05:31.645Z,0
2023-02-02T03:06:31.824Z,0
2023-02-02T03:07:31.977Z,0
2023-02-02T03:08:32.142Z,0
2023-02-02T03:09:32.308Z,0
2023-02-02T03:10:32.468Z,0
2023-02-02T03:11:32.635Z,0
2023-02-02T03:12:32.814Z,0
2023-02-02T03:13:32.982Z,0
2023-02-02T03:14:33.218Z,0
2023-02-02T03:15:33.413Z,0
2023-02-02T03:16:33.655Z,0
2023-02-02T03:17:33.816Z,0
2023-02-02T03:18:33.976Z,0
2023-02-02T03:19:34.146Z,0
2023-02-02T03:20:34.311Z,0
2023-02-02T03:21:34.479Z,0
2023-02-02T03:22:34.676Z,0
2023-02-02T03:23:34.852Z,0
2023-02-02T03:24:35.031Z,0
2023-02-02T03:25:35.193Z,0
2023-02-02T03:26:35.433Z,0
2023-02-02T03:27:35.634Z,0
2023-02-02T03:28:35.784Z,0
2023-02-02T03:29:35.955Z,0
2023-02-02T03:30:36.146Z,0
2023-02-02T03:31:36.500Z,0
2023-02-02T03:32:36.806Z,0
2023-02-02T03:33:36.971Z,0
2023-02-02T03:34:37.130Z,0
2023-02-02T03:35:37.304Z,0
2023-02-02T03:36:37.473Z,0
2023-02-02T03:37:37.640Z,0
2023-02-02T03:38:37.807Z,0
2023-02-02T03:39:37.977Z,0
2023-02-02T03:40:38.155Z,0
2023-02-02T03:41:38.313Z,0
2023-02-02T03:42:38.499Z,0
2023-02-02T03:43:38.673Z,0
2023-02-02T03:44:38.841Z,0
2023-02-02T03:45:39.005Z,0
2023-02-02T03:46:39.236Z,0
2023-02-02T03:47:39.496Z,0
2023-02-02T03:48:39.656Z,0
2023-02-02T03:49:39.828Z,0
2023-02-02T03:50:39.993Z,0
2023-02-02T03:51:40.175Z,0
2023-02-02T03:52:40.343Z,0
2023-02-02T03:53:40.513Z,0
2023-02-02T03:54:40.690Z,0
2023-02-02T03:55:40.900Z,0
2023-02-02T03:56:41.072Z,0
2023-02-02T03:57:41.286Z,0
2023-02-02T03:58:41.454Z,0
2023-02-02T03:59:41.648Z,0
2023-02-02T04:00:41.813Z,0
2023-02-02T04:01:42.013Z,0
2023-02-02T04:02:42.398Z,0
2023-02-02T04:03:42.724Z,0
2023-02-02T04:04:42.908Z,0
2023-02-02T04:05:43.108Z,0
2023-02-02T04:06:43.293Z,0
2023-02-02T04:07:43.495Z,0
2023-02-02T04:08:43.660Z,0
2023-02-02T04:09:43.829Z,0
2023-02-02T04:10:44.017Z,0
2023-02-02T04:11:44.232Z,0
2023-02-02T04:12:44.409Z,0
2023-02-02T04:13:44.592Z,0
2023-02-02T04:14:44.775Z,0
2023-02-02T04:15:44.937Z,0
2023-02-02T04:16:45.093Z,0
2023-02-02T04:17:45.261Z,0
2023-02-02T04:18:45.456Z,0
2023-02-02T04:19:45.634Z,0
2023-02-02T04:20:45.822Z,0
2023-02-02T04:21:45.994Z,0
2023-02-02T04:22:46.169Z,0
2023-02-02T04:23:46.348Z,0
2023-02-02T04:24:46.527Z,0
2023-02-02T04:25:46.702Z,0
2023-02-02T04:26:46.891Z,0
2023-02-02T04:27:47.182Z,0
2023-02-02T04:28:47.353Z,0
2023-02-02T04:29:47.522Z,0
2023-02-02T04:30:47.770Z,0
2023-02-02T04:31:48.069Z,0
2023-02-02T04:32:48.376Z,0
2023-02-02T04:33:48.546Z,0
2023-02-02T04:34:48.735Z,0
2023-02-02T04:35:48.911Z,0
2023-02-02T04:36:49.084Z,0
2023-02-02T04:37:49.296Z,0
2023-02-02T04:38:49.523Z,0
2023-02-02T04:39:49.723Z,0
2023-02-02T04:40:49.887Z,0
2023-02-02T04:41:50.076Z,0
2023-02-02T04:42:50.238Z,0
2023-02-02T04:43:50.406Z,0
2023-02-02T04:44:50.619Z,0
2023-02-02T04:45:50.899Z,0
2023-02-02T04:46:51.094Z,0
2023-02-02T04:47:51.498Z,0
2023-02-02T04:48:51.698Z,0
2023-02-02T04:49:51.875Z,0
2023-02-02T04:50:52.053Z,0
2023-02-02T04:51:52.252Z,0
2023-02-02T04:52:52.428Z,0
2023-02-02T04:53:52.607Z,0
2023-02-02T04:54:52.780Z,0
2023-02-02T04:55:52.968Z,0
2023-02-02T04:56:53.156Z,0
2023-02-02T04:57:53.328Z,0
2023-02-02T04:58:53.507Z,0
2023-02-02T04:59:53.689Z,0
2023-02-02T05:00:53.891Z,0
2023-02-02T05:01:54.192Z,0
2023-02-02T05:02:54.380Z,0
2023-02-02T05:03:54.552Z,0
2023-02-02T05:04:54.746Z,0
2023-02-02T05:05:54.919Z,0
2023-02-02T05:06:55.114Z,0
2023-02-02T05:07:55.289Z,0
2023-02-02T05:08:55.473Z,0
2023-02-02T05:09:55.667Z,0
2023-02-02T05:10:55.847Z,0
2023-02-02T05:11:56.022Z,0
2023-02-02T05:12:56.206Z,0
2023-02-02T05:13:56.388Z,0
2023-02-02T05:14:56.565Z,0
2023-02-02T05:15:56.730Z,0
2023-02-02T05:16:56.953Z,0
2023-02-02T05:17:57.378Z,0
2023-02-02T05:18:57.564Z,0
2023-02-02T05:19:57.736Z,0
2023-02-02T05:20:57.911Z,0
2023-02-02T05:21:58.087Z,0
2023-02-02T05:22:58.257Z,0
2023-02-02T05:23:58.424Z,0
2023-02-02T05:24:58.597Z,0
2023-02-02T05:25:58.775Z,0
2023-02-02T05:26:59.023Z,0
2023-02-02T05:27:59.294Z,0
2023-02-02T05:28:59.466Z,0
2023-02-02T05:29:59.657Z,0
2023-02-02T05:30:59.891Z,0
2023-02-02T05:32:00.244Z,0
2023-02-02T05:33:00.773Z,0
2023-02-02T05:34:00.957Z,0
2023-02-02T05:35:01.126Z,0
2023-02-02T05:36:01.297Z,0
2023-02-02T05:37:01.468Z,0
2023-02-02T05:38:01.675Z,0
2023-02-02T05:39:01.850Z,0
2023-02-02T05:40:02.016Z,0
2023-02-02T05:41:02.177Z,0
2023-02-02T05:42:02.466Z,0
2023-02-02T05:43:02.638Z,0
2023-02-02T05:44:02.804Z,0
2023-02-02T05:45:02.979Z,0
2023-02-02T05:46:03.180Z,0
2023-02-02T05:47:03.516Z,0
2023-02-02T05:48:03.709Z,0
2023-02-02T05:49:03.900Z,0
2023-02-02T05:50:04.093Z,0
2023-02-02T05:51:04.291Z,0
2023-02-02T05:52:04.477Z,0
2023-02-02T05:53:04.648Z,0
2023-02-02T05:54:04.837Z,0
2023-02-02T05:55:05.037Z,0
2023-02-02T05:56:05.268Z,0
2023-02-02T05:57:05.451Z,0
2023-02-02T05:58:05.621Z,0
2023-02-02T05:59:05.813Z,0
2023-02-02T06:00:05.990Z,0
2023-02-02T06:01:06.169Z,0
2023-02-02T06:02:06.468Z,0
2023-02-02T06:03:06.785Z,0
2023-02-02T06:04:07.394Z,0
2023-02-02T06:05:07.791Z,0
2023-02-02T06:06:07.978Z,0
2023-02-02T06:07:08.161Z,0
2023-02-02T06:08:08.332Z,0
2023-02-02T06:09:08.524Z,0
2023-02-02T06:10:08.766Z,0
2023-02-02T06:11:08.979Z,0
2023-02-02T06:12:09.153Z,0
2023-02-02T06:13:09.319Z,0
2023-02-02T06:14:09.547Z,0
2023-02-02T06:15:09.733Z,0
2023-02-02T06:16:09.941Z,0
2023-02-02T06:17:10.224Z,0
2023-02-02T06:18:10.423Z,0
2023-02-02T06:19:10.716Z,0
2023-02-02T06:20:10.902Z,0
2023-02-02T06:21:11.093Z,0
2023-02-02T06:22:11.273Z,0
2023-02-02T06:23:11.451Z,0
2023-02-02T06:24:11.628Z,0
2023-02-02T06:25:11.811Z,0
2023-02-02T06:26:11.983Z,0
2023-02-02T06:27:12.148Z,0
2023-02-02T06:28:12.363Z,0
2023-02-02T06:29:12.770Z,0
2023-02-02T06:30:12.940Z,0
2023-02-02T06:31:13.172Z,1
2023-02-02T06:32:13.717Z,3
2023-02-02T06:33:13.906Z,4
2023-02-02T06:34:14.081Z,4
2023-02-02T06:35:14.246Z,6
2023-02-02T06:36:14.410Z,7
2023-02-02T06:37:14.588Z,8
2023-02-02T06:38:14.763Z,9
2023-02-02T06:39:14.947Z,11
2023-02-02T06:40:15.142Z,13
2023-02-02T06:41:15.325Z,15
2023-02-02T06:42:21.520Z,17
2023-02-02T06:43:22.345Z,19
2023-02-02T06:44:22.527Z,21
2023-02-02T06:45:22.918Z,24
2023-02-02T06:46:23.976Z,24
2023-02-02T06:47:26.011Z,27
2023-02-02T06:48:27.169Z,30
2023-02-02T06:49:27.364Z,30
2023-02-02T06:50:27.530Z,33
2023-02-02T06:51:27.712Z,37
2023-02-02T06:52:27.884Z,41
2023-02-02T06:53:28.068Z,41
2023-02-02T06:54:28.285Z,46
2023-02-02T06:55:28.461Z,51
2023-02-02T06:56:28.645Z,51
2023-02-02T06:57:28.825Z,57
2023-02-02T06:58:29.000Z,64
2023-02-02T06:59:29.192Z,64
2023-02-02T07:00:29.411Z,71
2023-02-02T07:01:29.748Z,71
2023-02-02T07:02:30.132Z,80
2023-02-02T07:03:30.379Z,88
2023-02-02T07:04:30.557Z,88
2023-02-02T07:05:31.182Z,98
2023-02-02T07:06:32.483Z,110
2023-02-02T07:07:32.664Z,110
2023-02-02T07:08:32.867Z,110
2023-02-02T07:09:33.041Z,130
2023-02-02T07:11:08.489Z,130
2023-02-02T07:12:17.671Z,169.92
2023-02-02T07:13:17.856Z,169.92
2023-02-02T07:14:18.029Z,189.92
2023-02-02T07:15:18.220Z,189.92
2023-02-02T07:16:18.442Z,209.92
2023-02-02T07:17:18.724Z,209.92
2023-02-02T07:18:18.899Z,209.92
2023-02-02T07:19:19.075Z,240
2023-02-02T07:20:19.255Z,240
2023-02-02T07:21:19.467Z,269.92
2023-02-02T07:22:19.652Z,269.92
2023-02-02T07:23:19.830Z,269.92
2023-02-02T07:24:20.056Z,300
2023-02-02T07:25:20.278Z,300
2023-02-02T07:26:20.520Z,329.92
2023-02-02T07:27:20.871Z,329.92
2023-02-02T07:28:21.037Z,369.92
2023-02-02T07:29:21.215Z,369.92
2023-02-02T07:30:21.423Z,409.92
2023-02-02T07:31:21.856Z,409.92
2023-02-02T07:32:22.271Z,409.92
2023-02-02T07:33:22.439Z,459.84
2023-02-02T07:34:22.614Z,459.84
2023-02-02T07:35:23.164Z,509.76
2023-02-02T07:36:24.482Z,509.76
2023-02-02T07:37:24.734Z,569.92
2023-02-02T07:38:24.916Z,569.92
2023-02-02T07:39:25.100Z,569.92
2023-02-02T07:40:25.283Z,629.76
2023-02-02T07:41:25.472Z,709.76
2023-02-02T07:42:25.666Z,709.76
2023-02-02T07:43:25.847Z,789.76
2023-02-02T07:44:26.015Z,789.76
2023-02-02T07:45:27.163Z,869.76
2023-02-02T07:46:28.492Z,869.76
2023-02-02T07:47:28.821Z,869.76
2023-02-02T07:48:28.992Z,960
2023-02-02T07:49:29.163Z,960
2023-02-02T07:50:29.344Z,960
2023-02-02T07:51:29.541Z,960
2023-02-02T07:52:29.736Z,1059.84
2023-02-02T07:53:29.915Z,1059.84
2023-02-02T07:54:30.110Z,1059.84
2023-02-02T07:55:30.659Z,1179.52
2023-02-02T07:56:32.011Z,1179.52
2023-02-02T07:57:32.188Z,1179.52
2023-02-02T07:58:32.378Z,1179.52
2023-02-02T07:59:32.682Z,1179.52
2023-02-02T08:00:32.883Z,1179.52
2023-02-02T08:01:33.180Z,1179.52
2023-02-02T08:02:33.451Z,1059.84
2023-02-02T08:03:33.671Z,1059.84
2023-02-02T08:04:33.862Z,1059.84
2023-02-02T08:05:34.048Z,1059.84
2023-02-02T08:06:34.223Z,1059.84
2023-02-02T08:07:34.413Z,1059.84
2023-02-02T08:08:34.610Z,1059.84
2023-02-02T08:09:34.791Z,1059.84
2023-02-02T08:10:34.956Z,1059.84
2023-02-02T08:11:35.118Z,1059.84
2023-02-02T08:12:35.285Z,1040
2023-02-02T08:13:35.479Z,1040
2023-02-02T08:14:35.667Z,1040
2023-02-02T08:15:36.231Z,1040
2023-02-02T08:16:36.524Z,1040
2023-02-02T08:17:36.974Z,1040
2023-02-02T08:18:37.146Z,1040
2023-02-02T08:19:37.399Z,1040
2023-02-02T08:20:37.566Z,1040
2023-02-02T08:21:37.736Z,1040
2023-02-02T08:22:37.920Z,999.68
2023-02-02T08:23:38.091Z,999.68
2023-02-02T08:24:38.274Z,1099.52
2023-02-02T08:25:38.437Z,1219.84
2023-02-02T08:26:38.653Z,1219.84
2023-02-02T08:27:38.944Z,1359.36
2023-02-02T08:28:39.113Z,1359.36
2023-02-02T08:29:39.293Z,1359.36
2023-02-02T08:30:39.526Z,1359.36
2023-02-02T08:31:39.897Z,1359.36
2023-02-02T08:32:40.204Z,1359.36
2023-02-02T08:33:40.391Z,1359.36
2023-02-02T08:34:40.579Z,1359.36
2023-02-02T08:35:40.751Z,1359.36
2023-02-02T08:36:40.933Z,1219.84
2023-02-02T08:37:41.116Z,1219.84
2023-02-02T08:38:41.324Z,1219.84
2023-02-02T08:39:41.581Z,1219.84
2023-02-02T08:40:41.834Z,1219.84
2023-02-02T08:41:42.034Z,1219.84
2023-02-02T08:42:42.239Z,1359.36
2023-02-02T08:43:42.449Z,1359.36
2023-02-02T08:44:42.902Z,1359.36
2023-02-02T08:47:06.123Z,1539.84
2023-02-02T08:48:11.918Z,1539.84
2023-02-02T08:49:13.204Z,1600
2023-02-02T08:50:13.421Z,1600
2023-02-02T08:51:13.589Z,1600
2023-02-02T08:52:13.766Z,1600
2023-02-02T08:53:13.955Z,1600
2023-02-02T08:54:14.137Z,1600
2023-02-02T08:55:14.316Z,1658.88
2023-02-02T08:56:14.485Z,1658.88
2023-02-02T08:57:14.673Z,1658.88
2023-02-02T08:58:14.924Z,1658.88
2023-02-02T08:59:15.091Z,1658.88
2023-02-02T09:00:15.251Z,1839.36
2023-02-02T09:01:15.438Z,1839.36
2023-02-02T09:02:15.806Z,1839.36
2023-02-02T09:03:16.354Z,2039.04
2023-02-02T09:04:16.526Z,2039.04
2023-02-02T09:05:16.707Z,2039.04
2023-02-02T09:06:16.904Z,2039.04
2023-02-02T09:07:17.128Z,2039.04
2023-02-02T09:08:17.339Z,2259.2
2023-02-02T09:09:17.703Z,2259.2
2023-02-02T09:10:17.885Z,2259.2
2023-02-02T09:11:18.071Z,2259.2
2023-02-02T09:12:18.248Z,2259.2
2023-02-02T09:13:18.444Z,2259.2
2023-02-02T09:14:18.623Z,2499.84
2023-02-02T09:15:18.783Z,2499.84
2023-02-02T09:16:18.970Z,2499.84
2023-02-02T09:17:19.330Z,2759.68
2023-02-02T09:18:19.515Z,2759.68
2023-02-02T09:19:19.686Z,2759.68
2023-02-02T09:20:20.635Z,2759.68
2023-02-02T09:21:20.941Z,2759.68
2023-02-02T09:22:21.141Z,2759.68
2023-02-02T09:23:21.312Z,2759.68
2023-02-02T09:24:21.490Z,2759.68
2023-02-02T09:25:21.729Z,2759.68
2023-02-02T09:26:22.025Z,2759.68
2023-02-02T09:27:22.330Z,2499.84
2023-02-02T09:28:22.526Z,2499.84
2023-02-02T09:29:22.694Z,2499.84
2023-02-02T09:30:22.896Z,2499.84
2023-02-02T09:31:23.183Z,2499.84
2023-02-02T09:32:23.497Z,2499.84
2023-02-02T09:33:23.698Z,2499.84
2023-02-02T09:34:23.896Z,2499.84
2023-02-02T09:35:24.402Z,2499.84
2023-02-02T09:36:25.406Z,2499.84
2023-02-02T09:37:25.692Z,2479.36
2023-02-02T09:38:25.871Z,2479.36
2023-02-02T09:39:26.044Z,2479.36
2023-02-02T09:40:26.212Z,2479.36
2023-02-02T09:41:26.385Z,2739.2
2023-02-02T09:42:26.566Z,2739.2
2023-02-02T09:43:26.746Z,3018.24
2023-02-02T09:44:26.928Z,3018.24
2023-02-02T09:45:27.538Z,3018.24
2023-02-02T09:46:28.400Z,3018.24
2023-02-02T09:47:28.612Z,3018.24
2023-02-02T09:48:28.801Z,3018.24
2023-02-02T09:49:28.983Z,3018.24
2023-02-02T09:50:29.156Z,3018.24
2023-02-02T09:51:29.317Z,2677.76
2023-02-02T09:52:29.493Z,2677.76
2023-02-02T09:53:29.658Z,2400
2023-02-02T09:54:29.837Z,2400
2023-02-02T09:55:30.022Z,2159.36
2023-02-02T09:56:30.198Z,2159.36
2023-02-02T09:57:30.393Z,2159.36
2023-02-02T09:58:30.583Z,2159.36
2023-02-02T09:59:30.755Z,2159.36
2023-02-02T10:00:30.958Z,2159.36
2023-02-02T10:01:31.217Z,2159.36
2023-02-02T10:02:31.545Z,2159.36
2023-02-02T10:03:31.789Z,2159.36
2023-02-02T10:04:32.190Z,2159.36
2023-02-02T10:05:32.356Z,2279.68
2023-02-02T10:06:32.575Z,2279.68
2023-02-02T10:07:32.772Z,2279.68
2023-02-02T10:08:34.848Z,2279.68
2023-02-02T10:09:35.912Z,2039.04
2023-02-02T10:10:36.104Z,2039.04
2023-02-02T10:11:36.300Z,2039.04
2023-02-02T10:12:36.520Z,2039.04
2023-02-02T10:13:36.702Z,2039.04
2023-02-02T10:14:36.879Z,2039.04
2023-02-02T10:15:37.219Z,2039.04
2023-02-02T10:16:37.642Z,2279.68
2023-02-02T10:17:37.829Z,2539.52
2023-02-02T10:18:38.000Z,2839.04
2023-02-02T10:19:38.210Z,3200
2023-02-02T10:20:38.396Z,3558.4
2023-02-02T10:21:38.560Z,3939.84
2023-02-02T10:22:38.739Z,3939.84
2023-02-02T10:23:38.909Z,3939.84
2023-02-02T10:24:39.091Z,3939.84
2023-02-02T10:25:39.322Z,3939.84
2023-02-02T10:26:39.562Z,3537.92
2023-02-02T10:27:40.061Z,3537.92
2023-02-02T10:28:40.239Z,3537.92
2023-02-02T10:29:48.776Z,3537.92
2023-02-02T10:30:49.860Z,3179.52
2023-02-02T10:31:50.539Z,3179.52
2023-02-02T10:32:51.231Z,3179.52
2023-02-02T10:33:51.397Z,3179.52
2023-02-02T10:35:00.302Z,3179.52
2023-02-02T10:36:15.123Z,3018.24
2023-02-02T10:37:15.300Z,3018.24
2023-02-02T10:38:15.481Z,3018.24
2023-02-02T10:39:15.684Z,3018.24
2023-02-02T10:40:15.886Z,3018.24
2023-02-02T10:41:16.098Z,3438.08
2023-02-02T10:42:16.306Z,3438.08
2023-02-02T10:43:16.504Z,3799.04
2023-02-02T10:44:16.692Z,3799.04
2023-02-02T10:45:16.870Z,4218.88
2023-02-02T10:46:17.151Z,4659.2
2023-02-02T10:47:17.669Z,4659.2
2023-02-02T10:48:17.856Z,5199.36
2023-02-02T10:49:18.119Z,5719.04
2023-02-02T10:50:18.360Z,5719.04
2023-02-02T10:51:18.916Z,5719.04
2023-02-02T10:52:19.120Z,6297.6
2023-02-02T10:53:19.309Z,6297.6
2023-02-02T10:54:19.500Z,6297.6
2023-02-02T10:55:19.683Z,6297.6
2023-02-02T10:56:19.875Z,6297.6
2023-02-02T10:57:20.048Z,6297.6
2023-02-02T10:58:20.248Z,5596.16
2023-02-02T10:59:20.438Z,5596.16
2023-02-02T11:00:22.855Z,5596.16
2023-02-02T11:01:24.136Z,5038.08
2023-02-02T11:02:24.402Z,5038.08
2023-02-02T11:03:24.654Z,5038.08
2023-02-02T11:04:24.816Z,5038.08
2023-02-02T11:05:25.038Z,5038.08
2023-02-02T11:06:25.211Z,5038.08
2023-02-02T11:07:25.400Z,5038.08
2023-02-02T11:08:25.573Z,5038.08
2023-02-02T11:09:25.743Z,5038.08
2023-02-02T11:10:26.180Z,5038.08
2023-02-02T11:11:27.205Z,5178.88
2023-02-02T11:12:29.573Z,4579.84
2023-02-02T11:13:30.038Z,4579.84
2023-02-02T11:14:30.278Z,4579.84
2023-02-02T11:15:30.522Z,4579.84
2023-02-02T11:16:41.830Z,4579.84
2023-02-02T11:17:44.900Z,4858.88
2023-02-02T11:18:45.094Z,4858.88
2023-02-02T11:19:45.280Z,4858.88
2023-02-02T11:20:45.463Z,4858.88
2023-02-02T11:21:45.634Z,4858.88
2023-02-02T11:22:45.817Z,4679.68
2023-02-02T11:23:47.988Z,4679.68
2023-02-02T11:24:49.043Z,4679.68
2023-02-02T11:25:49.234Z,4679.68
2023-02-02T11:26:49.468Z,4679.68
2023-02-02T11:27:49.785Z,4679.68
2023-02-02T11:28:50.151Z,4679.68
2023-02-02T11:29:50.358Z,5178.88
2023-02-02T11:30:50.658Z,5178.88
2023-02-02T11:31:51.227Z,5178.88
2023-02-02T11:32:51.563Z,5178.88
2023-02-02T11:33:51.774Z,5719.04
2023-02-02T11:34:51.940Z,6400
2023-02-02T11:35:52.125Z,6400
2023-02-02T11:36:52.292Z,6400
2023-02-02T11:37:52.455Z,6400
2023-02-02T11:38:52.640Z,6400
2023-02-02T11:39:53.950Z,6400
2023-02-02T11:40:54.204Z,6400
2023-02-02T11:41:54.471Z,6400
2023-02-02T11:42:54.650Z,6400
2023-02-02T11:43:54.847Z,6400
2023-02-02T11:44:55.024Z,5816.32
2023-02-02T11:45:55.201Z,5816.32
2023-02-02T11:46:55.402Z,5816.32
2023-02-02T11:47:55.681Z,5816.32
2023-02-02T11:48:55.890Z,5816.32
2023-02-02T11:49:57.489Z,5816.32
2023-02-02T11:51:01.790Z,5539.84
2023-02-02T11:52:02.281Z,5539.84
2023-02-02T11:53:02.449Z,5539.84
2023-02-02T11:54:02.622Z,5539.84
2023-02-02T11:55:02.795Z,5816.32
2023-02-02T11:56:03.012Z,5816.32
2023-02-02T11:57:03.206Z,5816.32
2023-02-02T11:58:03.400Z,5816.32
2023-02-02T11:59:03.581Z,5816.32
2023-02-02T12:00:03.773Z,5816.32
2023-02-02T12:01:03.960Z,5816.32
2023-02-02T12:02:04.218Z,5816.32
2023-02-02T12:03:04.519Z,5816.32
2023-02-02T12:04:04.719Z,5816.32
2023-02-02T12:05:05.138Z,5319.68
2023-02-02T12:06:05.330Z,5319.68
2023-02-02T12:07:05.497Z,5319.68
2023-02-02T12:08:05.688Z,4779.52
2023-02-02T12:09:05.944Z,4779.52
2023-02-02T12:10:06.131Z,4779.52
2023-02-02T12:11:06.353Z,4298.24
2023-02-02T12:12:06.558Z,4298.24
2023-02-02T12:13:06.798Z,4298.24
2023-02-02T12:14:06.981Z,4298.24
2023-02-02T12:15:07.150Z,4298.24
2023-02-02T12:16:09.020Z,4298.24
2023-02-02T12:17:09.540Z,4298.24
2023-02-02T12:18:09.746Z,4298.24
2023-02-02T12:19:09.966Z,4759.04
2023-02-02T12:20:10.156Z,4759.04
2023-02-02T12:21:10.405Z,4759.04
2023-02-02T12:22:11.475Z,4759.04
2023-02-02T12:23:12.445Z,4759.04
2023-02-02T12:24:12.640Z,4759.04
2023-02-02T12:25:12.838Z,4759.04
2023-02-02T12:26:13.005Z,4759.04
2023-02-02T12:27:13.207Z,4759.04
2023-02-02T12:28:13.406Z,4759.04
2023-02-02T12:29:13.584Z,4277.76
2023-02-02T12:30:13.775Z,3819.52
2023-02-02T12:31:14.096Z,3819.52
2023-02-02T12:32:14.668Z,3399.68
2023-02-02T12:33:14.903Z,3399.68
2023-02-02T12:34:15.075Z,3399.68
2023-02-02T12:35:15.243Z,3399.68
2023-02-02T12:36:15.439Z,3399.68
2023-02-02T12:37:15.641Z,3737.6
2023-02-02T12:38:15.828Z,3737.6
2023-02-02T12:39:16.010Z,4119.04
2023-02-02T12:40:16.203Z,4119.04
2023-02-02T12:41:16.408Z,4119.04
2023-02-02T12:42:16.581Z,4119.04
2023-02-02T12:43:16.761Z,4119.04
2023-02-02T12:44:16.951Z,4119.04
2023-02-02T12:45:17.163Z,4119.04
2023-02-02T12:46:17.491Z,4119.04
2023-02-02T12:47:17.916Z,4119.04
2023-02-02T12:48:18.098Z,4119.04
2023-02-02T12:49:18.265Z,4039.68
2023-02-02T12:50:18.447Z,4039.68
2023-02-02T12:51:18.635Z,4039.68
2023-02-02T12:52:18.800Z,4039.68
2023-02-02T12:53:18.969Z,4039.68
2023-02-02T12:54:34.055Z,4039.68
2023-02-02T12:55:57.766Z,3819.52
2023-02-02T12:56:58.276Z,3819.52
2023-02-02T12:57:58.458Z,3819.52
2023-02-02T12:58:58.655Z,3678.72
2023-02-02T12:59:58.827Z,3678.72
2023-02-02T13:00:59.145Z,3678.72
2023-02-02T13:01:59.444Z,3678.72
2023-02-02T13:02:59.687Z,3678.72
2023-02-02T13:03:59.853Z,3678.72
2023-02-02T13:05:00.022Z,3678.72
2023-02-02T13:06:00.232Z,3678.72
2023-02-02T13:07:00.425Z,3678.72
2023-02-02T13:08:00.607Z,3678.72
2023-02-02T13:09:00.787Z,3699.2
2023-02-02T13:10:00.986Z,3699.2
2023-02-02T13:11:01.184Z,3699.2
2023-02-02T13:12:01.345Z,3699.2
2023-02-02T13:13:01.573Z,3699.2
2023-02-02T13:14:01.757Z,3699.2
2023-02-02T13:15:01.930Z,3699.2
2023-02-02T13:16:02.108Z,3699.2
2023-02-02T13:17:02.379Z,3699.2
2023-02-02T13:18:02.663Z,3279.36
2023-02-02T13:19:02.837Z,3279.36
2023-02-02T13:20:03.011Z,2938.88
2023-02-02T13:21:03.191Z,2938.88
2023-02-02T13:22:03.355Z,2938.88
2023-02-02T13:23:03.546Z,2938.88
2023-02-02T13:24:04.993Z,2938.88
2023-02-02T13:25:06.223Z,2938.88
2023-02-02T13:26:06.446Z,2938.88
2023-02-02T13:27:06.847Z,3238.4
2023-02-02T13:28:07.106Z,3637.76
2023-02-02T13:29:07.305Z,4039.68
2023-02-02T13:30:07.598Z,4459.52
2023-02-02T13:31:08.118Z,4459.52
2023-02-02T13:32:08.577Z,4917.76
2023-02-02T13:33:09.391Z,4917.76
2023-02-02T13:34:09.556Z,4917.76
2023-02-02T13:35:09.752Z,5437.44
2023-02-02T13:36:09.925Z,5437.44